Time;durP1;ratioP1;P1;durP2;ratioP2;P2;SDS_P1;SDS_P2;PMS_P1;PMS_P2;Temp;Humidity;BMP_temperature;BMP_pressure;BME280_temperature;BME280_humidity;BME280_pressure;Samples;Min_cycle;Max_cycle;Signal;HPM_P1;HPM_P2
2024/01/29 00:00:32;;;;;;;12.60;3.57;;;;;;;0.93;88.09;102730.78;5075372;28;20025;-67
2024/01/29 00:02:58;;;;;;;9.57;3.23;;;;;;;0.94;88.13;102723.88;5073214;28;20515;-66
2024/01/29 00:05:23;;;;;;;12.07;3.72;;;;;;;0.98;88.20;102728.66;5071860;28;20113;-66
2024/01/29 00:07:48;;;;;;;10.37;3.57;;;;;;;0.98;87.97;102716.59;5071926;28;20064;-66
2024/01/29 00:10:14;;;;;;;8.63;3.33;;;;;;;0.99;88.11;102714.91;5072679;28;20128;-67
2024/01/29 00:12:40;;;;;;;15.60;3.87;;;;;;;0.97;88.16;102725.13;5072870;28;20519;-67
2024/01/29 00:15:06;;;;;;;13.48;3.72;;;;;;;0.97;87.96;102714.72;5072887;28;20036;-66
2024/01/29 00:17:31;;;;;;;10.38;3.33;;;;;;;0.97;88.37;102714.72;5073003;28;20032;-67
2024/01/29 00:19:56;;;;;;;10.70;4.20;;;;;;;0.98;88.35;102716.59;5074689;28;20446;-67
2024/01/29 00:22:22;;;;;;;12.13;3.40;;;;;;;0.99;87.98;102726.22;5078207;28;20028;-67
2024/01/29 00:24:47;;;;;;;10.00;3.30;;;;;;;0.97;87.68;102717.34;5072529;28;20120;-67
2024/01/29 00:27:13;;;;;;;11.37;2.90;;;;;;;0.95;87.77;102725.72;5072549;28;20037;-66
2024/01/29 00:29:38;;;;;;;10.10;3.17;;;;;;;0.93;87.73;102728.16;5072597;28;20044;-67
2024/01/29 00:32:04;;;;;;;10.23;3.27;;;;;;;0.90;87.79;102733.00;5076759;28;20302;-67
2024/01/29 00:34:30;;;;;;;7.88;3.33;;;;;;;0.84;88.13;102721.91;5076910;28;20397;-67
2024/01/29 00:36:55;;;;;;;8.13;2.97;;;;;;;0.79;88.37;102720.53;5071027;28;20044;-68
2024/01/29 00:39:20;;;;;;;11.87;4.00;;;;;;;0.77;88.15;102720.34;5072077;28;20123;-67
2024/01/29 00:41:46;;;;;;;10.33;3.07;;;;;;;0.75;88.06;102719.22;5072281;28;20534;-66
2024/01/29 00:44:11;;;;;;;13.77;3.53;;;;;;;0.72;88.20;102704.97;5072255;28;20052;-67
2024/01/29 00:46:39;;;;;;;11.53;3.97;;;;;;;0.69;88.58;102700.34;5071750;28;20119;-66
2024/01/29 00:49:04;;;;;;;11.80;3.43;;;;;;;0.67;88.48;102690.53;5072188;28;20797;-67
2024/01/29 00:51:29;;;;;;;13.47;3.93;;;;;;;0.66;88.68;102699.09;5074988;28;20119;-67
2024/01/29 00:53:55;;;;;;;11.60;3.57;;;;;;;0.67;88.63;102703.53;5071854;28;20309;-66
2024/01/29 00:56:20;;;;;;;10.33;3.77;;;;;;;0.66;88.61;102700.00;5071572;28;20048;-67
2024/01/29 00:58:46;;;;;;;9.83;3.30;;;;;;;0.63;88.35;102694.47;5071799;28;20112;-67
2024/01/29 01:01:11;;;;;;;11.43;3.65;;;;;;;0.61;88.55;102695.06;5074572;28;20090;-66
2024/01/29 01:03:37;;;;;;;14.13;4.03;;;;;;;0.61;88.80;102705.44;5071928;28;20273;-67
2024/01/29 01:06:02;;;;;;;9.80;3.13;;;;;;;0.59;88.72;102696.56;5071617;28;20040;-66
2024/01/29 01:08:28;;;;;;;8.52;3.08;;;;;;;0.57;88.82;102701.59;5071795;28;20044;-67
2024/01/29 01:10:53;;;;;;;12.53;3.37;;;;;;;0.54;88.83;102692.53;5071243;28;20489;-67
2024/01/29 01:13:18;;;;;;;8.40;3.00;;;;;;;0.52;88.45;102699.22;5072274;28;20096;-67
2024/01/29 01:18:10;;;;;;;8.05;3.15;;;;;;;0.51;88.30;102699.97;5063934;27;20865;-66
2024/01/29 01:20:35;;;;;;;10.20;3.67;;;;;;;0.51;88.42;102702.56;5063849;28;20028;-67
2024/01/29 01:23:01;;;;;;;10.98;3.83;;;;;;;0.47;88.66;102693.53;5056058;28;20045;-67
2024/01/29 01:25:27;;;;;;;10.17;3.20;;;;;;;0.44;88.21;102695.78;5063459;28;20508;-68
2024/01/29 01:27:53;;;;;;;10.57;3.33;;;;;;;0.41;88.64;102695.44;5063876;28;20033;-66
2024/01/29 01:30:20;;;;;;;10.48;3.60;;;;;;;0.41;89.05;102696.34;5063826;28;20115;-66
2024/01/29 01:32:46;;;;;;;12.53;4.03;;;;;;;0.39;89.12;102703.09;5063851;28;20036;-67
2024/01/29 01:35:11;;;;;;;10.82;3.38;;;;;;;0.39;88.93;102702.16;5063477;28;20044;-68
2024/01/29 01:37:37;;;;;;;10.03;3.43;;;;;;;0.40;89.54;102701.38;5063566;28;20112;-66
2024/01/29 01:40:04;;;;;;;7.13;2.97;;;;;;;0.40;89.40;102702.31;5063335;28;20128;-66
2024/01/29 01:42:30;;;;;;;11.60;3.38;;;;;;;0.40;89.25;102704.91;5063824;28;20029;-66
2024/01/29 01:44:55;;;;;;;11.05;3.45;;;;;;;0.42;89.25;102700.81;5063518;28;21632;-66
2024/01/29 01:47:20;;;;;;;12.03;3.50;;;;;;;0.43;89.04;102701.75;5063282;28;20052;-66
2024/01/29 01:49:46;;;;;;;15.20;4.00;;;;;;;0.43;89.26;102700.06;5063053;28;20041;-67
2024/01/29 01:52:12;;;;;;;8.18;3.65;;;;;;;0.44;89.19;102690.59;5063565;28;20069;-66
2024/01/29 01:54:39;;;;;;;15.07;3.77;;;;;;;0.44;89.20;102681.09;5063079;28;20037;-66
2024/01/29 01:57:05;;;;;;;11.07;4.00;;;;;;;0.44;89.16;102685.41;5063314;28;20541;-66
2024/01/29 01:59:33;;;;;;;8.55;3.10;;;;;;;0.42;89.39;102682.63;5063119;28;20516;-66
2024/01/29 02:01:59;;;;;;;9.77;3.22;;;;;;;0.44;89.58;102694.09;5063184;28;20536;-66
2024/01/29 02:06:51;;;;;;;10.95;4.40;;;;;;;0.48;89.43;102677.19;5107733;27;20924;-68
2024/01/29 02:09:17;;;;;;;14.43;3.72;;;;;;;0.51;88.93;102676.56;5092829;28;20108;-68
2024/01/29 02:11:42;;;;;;;16.33;3.72;;;;;;;0.49;89.10;102672.91;5067427;28;20096;-67
2024/01/29 02:14:08;;;;;;;12.13;3.70;;;;;;;0.47;88.81;102667.53;5057828;28;20032;-67
2024/01/29 02:16:34;;;;;;;11.52;3.58;;;;;;;0.48;89.16;102660.66;5066875;28;20123;-68
2024/01/29 02:19:03;;;;;;;10.47;4.20;;;;;;;0.49;89.28;102654.72;5067262;28;20032;-67
2024/01/29 02:21:29;;;;;;;18.27;4.57;;;;;;;0.48;89.05;102655.44;5074874;28;20032;-67
2024/01/29 02:23:54;;;;;;;14.93;3.63;;;;;;;0.45;89.03;102645.63;5067130;28;20527;-67
2024/01/29 02:26:19;;;;;;;14.23;3.33;;;;;;;0.44;89.08;102641.19;5066833;28;20575;-67
2024/01/29 02:28:45;;;;;;;12.83;3.57;;;;;;;0.42;89.02;102646.22;5067253;28;20045;-67
2024/01/29 02:31:11;;;;;;;17.47;4.57;;;;;;;0.40;88.94;102639.91;5066943;28;20354;-67
2024/01/29 02:35:53;;;;;;;10.17;3.83;;;;;;;0.42;89.04;102640.09;5106380;27;20399;-67
2024/01/29 02:38:18;;;;;;;12.27;3.60;;;;;;;0.41;88.63;102644.38;5088613;28;20112;-67
2024/01/29 02:40:44;;;;;;;8.67;2.93;;;;;;;0.40;88.54;102634.72;5087060;28;20298;-67
2024/01/29 02:43:09;;;;;;;13.10;3.70;;;;;;;0.39;89.02;102637.16;5087562;28;20111;-66
2024/01/29 02:45:35;;;;;;;14.60;3.50;;;;;;;0.35;88.87;102643.69;5087157;28;20036;-67
2024/01/29 02:48:00;;;;;;;10.80;3.72;;;;;;;0.34;89.09;102635.72;5087494;28;20099;-67
2024/01/29 02:50:26;;;;;;;11.97;3.67;;;;;;;0.33;89.05;102640.00;5090225;28;20153;-67
2024/01/29 02:52:52;;;;;;;10.40;4.00;;;;;;;0.34;88.89;102638.34;5087251;28;20036;-67
2024/01/29 02:55:17;;;;;;;10.18;4.07;;;;;;;0.34;89.12;102639.25;5086519;28;20086;-68
2024/01/29 02:57:42;;;;;;;12.23;3.57;;;;;;;0.32;89.20;102627.75;5087135;28;20244;-67
2024/01/29 03:00:08;;;;;;;12.97;3.83;;;;;;;0.32;89.30;102635.56;5085714;28;20672;-68
2024/01/29 03:02:33;;;;;;;15.20;4.72;;;;;;;0.32;89.53;102634.63;5090251;28;20032;-68
2024/01/29 03:04:59;;;;;;;10.57;3.60;;;;;;;0.31;89.23;102638.91;5095221;28;20101;-68
2024/01/29 03:07:24;;;;;;;11.03;3.80;;;;;;;0.30;89.42;102626.66;5087320;28;20109;-67
2024/01/29 03:09:50;;;;;;;11.20;3.90;;;;;;;0.28;89.29;102625.56;5095279;28;20036;-67
2024/01/29 03:12:15;;;;;;;9.80;3.67;;;;;;;0.26;89.59;102621.88;5087431;28;20040;-68
2024/01/29 03:14:41;;;;;;;14.17;3.97;;;;;;;0.25;89.25;102629.47;5087235;28;20488;-68
2024/01/29 03:17:07;;;;;;;11.25;3.80;;;;;;;0.24;89.91;102632.88;5087081;28;20044;-68
2024/01/29 03:19:32;;;;;;;10.87;3.77;;;;;;;0.22;89.95;102623.97;5087099;28;20028;-68
2024/01/29 03:21:58;;;;;;;13.30;4.63;;;;;;;0.19;90.09;102616.75;5095033;28;20036;-67
2024/01/29 03:24:23;;;;;;;12.37;4.50;;;;;;;0.20;89.83;102621.19;5086634;28;20283;-68
2024/01/29 03:26:49;;;;;;;10.97;3.97;;;;;;;0.21;90.31;102620.44;5086267;28;20503;-68
2024/01/29 03:29:14;;;;;;;9.77;4.13;;;;;;;0.19;90.37;102610.63;5086565;28;20535;-67
2024/01/29 03:31:39;;;;;;;14.57;3.77;;;;;;;0.19;89.94;102619.34;5086610;28;20115;-67
2024/01/29 03:34:05;;;;;;;10.70;3.70;;;;;;;0.18;90.65;102622.69;5086062;28;20476;-67
2024/01/29 03:36:30;;;;;;;11.90;4.13;;;;;;;0.18;90.29;102624.38;5086242;28;20275;-67
2024/01/29 03:38:55;;;;;;;10.67;3.97;;;;;;;0.17;90.84;102615.66;5086318;28;21044;-66
2024/01/29 03:41:21;;;;;;;10.00;3.07;;;;;;;0.17;90.71;102625.13;5086589;28;20119;-67
2024/01/29 03:43:46;;;;;;;10.90;3.97;;;;;;;0.17;90.42;102614.72;5086829;28;20071;-67
2024/01/29 03:46:11;;;;;;;9.53;3.53;;;;;;;0.16;90.80;102615.47;5087075;28;20040;-67
2024/01/29 03:48:37;;;;;;;9.00;3.40;;;;;;;0.15;90.74;102611.94;5081052;28;20364;-67
2024/01/29 03:51:02;;;;;;;13.00;3.67;;;;;;;0.15;90.56;102617.13;5079115;28;20040;-67
2024/01/29 03:53:28;;;;;;;9.13;3.93;;;;;;;0.15;90.38;102619.75;5068953;28;20072;-64
2024/01/29 03:55:54;;;;;;;9.27;3.73;;;;;;;0.15;90.66;102621.44;5071473;28;20626;-67
2024/01/29 03:58:20;;;;;;;9.43;3.10;;;;;;;0.13;90.76;102615.13;5072630;28;20029;-66
2024/01/29 04:00:46;;;;;;;10.63;3.72;;;;;;;0.10;90.31;102613.09;5075523;28;20420;-66
2024/01/29 04:03:11;;;;;;;11.97;3.43;;;;;;;0.09;90.41;102608.69;5072047;28;20040;-66
2024/01/29 04:05:36;;;;;;;13.70;4.37;;;;;;;0.07;90.97;102614.44;5072250;28;20031;-67
2024/01/29 04:08:02;;;;;;;13.77;4.00;;;;;;;0.07;90.72;102607.59;5072401;28;20037;-66
2024/01/29 04:12:48;;;;;;;9.88;3.50;;;;;;;0.05;91.45;102609.06;5109833;27;20366;-67
2024/01/29 04:15:14;;;;;;;11.77;3.43;;;;;;;0.04;91.91;102611.53;5108782;28;20028;-65
2024/01/29 04:17:39;;;;;;;12.43;3.75;;;;;;;0.02;91.68;102611.34;5107958;28;20125;-68
2024/01/29 04:20:05;;;;;;;12.90;3.87;;;;;;;0.06;91.61;102610.00;5110140;28;20024;-67
2024/01/29 04:22:34;;;;;;;11.50;4.30;;;;;;;0.04;91.84;102602.06;5103081;27;20070;-66
2024/01/29 04:25:04;;;;;;;13.90;4.13;;;;;;;0.02;92.04;102600.94;5087392;28;20491;-66
2024/01/29 04:27:30;;;;;;;9.83;3.50;;;;;;;0.02;92.12;102600.94;5087415;28;20548;-66
2024/01/29 04:29:55;;;;;;;12.35;4.13;;;;;;;-0.01;91.95;102598.03;5087189;28;20032;-67
2024/01/29 04:32:20;;;;;;;13.93;4.27;;;;;;;0.00;92.22;102599.88;5087497;28;20028;-66
2024/01/29 04:34:47;;;;;;;12.60;2.90;;;;;;;-0.02;92.17;102594.50;5087337;28;20622;-66
2024/01/29 04:37:13;;;;;;;12.10;4.15;;;;;;;-0.02;92.12;102588.38;5086820;28;20034;-66
2024/01/29 04:44:05;;;;;;;8.38;3.22;;;;;;;-0.04;92.34;102584.66;5004515;28;20369;-66
2024/01/29 04:46:30;;;;;;;11.57;3.70;;;;;;;-0.04;92.25;102585.59;4988848;28;20410;-67
2024/01/29 04:48:55;;;;;;;13.55;3.88;;;;;;;-0.05;92.25;102586.34;4984721;28;20047;-66
2024/01/29 04:51:21;;;;;;;8.57;3.33;;;;;;;-0.06;92.12;102584.53;4987777;28;20085;-65
2024/01/29 04:53:47;;;;;;;15.07;3.65;;;;;;;-0.06;92.02;102583.59;4983190;28;20062;-66
2024/01/29 04:56:12;;;;;;;11.07;4.07;;;;;;;-0.07;92.44;102589.53;4983194;28;20031;-64
2024/01/29 04:58:38;;;;;;;17.73;4.72;;;;;;;-0.10;92.40;102578.81;4984786;28;20046;-65
2024/01/29 05:01:04;;;;;;;14.10;3.50;;;;;;;-0.12;92.37;102572.50;4987206;28;20035;-64
2024/01/29 05:03:30;;;;;;;11.40;4.00;;;;;;;-0.13;92.63;102576.78;4984808;28;20034;-65
2024/01/29 05:05:56;;;;;;;11.73;4.45;;;;;;;-0.15;92.86;102574.78;4984337;28;20121;-65
2024/01/29 05:08:21;;;;;;;13.00;4.88;;;;;;;-0.18;92.84;102570.16;4984472;28;20034;-64
2024/01/29 05:10:47;;;;;;;12.50;3.77;;;;;;;-0.18;92.85;102574.41;4984470;28;20092;-63
2024/01/29 05:13:12;;;;;;;14.30;4.53;;;;;;;-0.20;93.40;102579.44;4984793;28;20031;-66
2024/01/29 05:15:38;;;;;;;11.48;4.13;;;;;;;-0.20;92.83;102578.53;4984299;28;20043;-64
2024/01/29 05:18:03;;;;;;;9.50;3.07;;;;;;;-0.20;93.36;102578.53;4984615;28;20031;-65
2024/01/29 05:22:48;;;;;;;11.48;3.95;;;;;;;-0.22;93.48;102578.34;5107924;27;20723;-66
2024/01/29 05:25:14;;;;;;;12.47;3.63;;;;;;;-0.23;93.33;102567.78;5099360;28;20108;-65
2024/01/29 05:27:39;;;;;;;13.05;4.05;;;;;;;-0.26;93.80;102570.03;5099213;28;20032;-64
2024/01/29 05:30:05;;;;;;;12.57;5.20;;;;;;;-0.24;93.85;102584.09;5080334;28;20115;-65
2024/01/29 05:32:31;;;;;;;15.43;4.57;;;;;;;-0.24;93.85;102574.66;5067394;28;20036;-65
2024/01/29 05:34:56;;;;;;;11.67;3.67;;;;;;;-0.24;94.35;102578.91;5066927;28;21749;-65
2024/01/29 05:37:21;;;;;;;11.07;3.97;;;;;;;-0.24;94.23;102577.25;5067103;28;20032;-65
2024/01/29 05:39:47;;;;;;;12.80;3.97;;;;;;;-0.24;94.54;102582.44;5066683;28;20104;-67
2024/01/29 05:42:12;;;;;;;14.83;4.40;;;;;;;-0.25;94.61;102580.63;5067286;28;20033;-66
2024/01/29 05:44:37;;;;;;;12.27;4.87;;;;;;;-0.26;94.40;102573.56;5075386;28;20407;-66
2024/01/29 05:47:03;;;;;;;11.63;4.00;;;;;;;-0.26;95.12;102572.66;5070448;28;20579;-65
2024/01/29 05:49:28;;;;;;;9.40;3.30;;;;;;;-0.30;95.45;102580.84;5073335;28;20039;-65
2024/01/29 05:51:54;;;;;;;10.13;4.13;;;;;;;-0.29;95.54;102573.19;5068330;28;20564;-66
2024/01/29 05:54:19;;;;;;;13.50;4.50;;;;;;;-0.28;95.54;102568.94;5066736;28;20041;-65
2024/01/29 05:56:45;;;;;;;13.07;4.63;;;;;;;-0.28;95.51;102579.31;5066528;28;20815;-66
2024/01/29 05:59:11;;;;;;;14.38;4.22;;;;;;;-0.28;95.15;102579.31;5066756;28;20115;-64
2024/01/29 06:01:37;;;;;;;10.77;4.37;;;;;;;-0.30;95.40;102586.97;5070041;28;20082;-65
2024/01/29 06:06:19;;;;;;;13.38;4.15;;;;;;;-0.33;95.08;102570.09;5087985;27;20360;-66
2024/01/29 06:08:45;;;;;;;14.50;4.03;;;;;;;-0.34;95.49;102568.25;5102558;28;20118;-66
2024/01/29 06:11:10;;;;;;;15.00;4.68;;;;;;;-0.35;95.50;102567.34;5094430;28;20036;-67
2024/01/29 06:13:35;;;;;;;18.70;5.20;;;;;;;-0.36;95.78;102569.75;5090279;28;20138;-66
2024/01/29 06:16:01;;;;;;;11.33;3.83;;;;;;;-0.38;95.71;102566.97;5088703;28;20127;-67
2024/01/29 06:18:26;;;;;;;13.00;4.03;;;;;;;-0.38;95.93;102560.88;5092370;28;20048;-66
2024/01/29 06:20:52;;;;;;;14.90;4.43;;;;;;;-0.37;96.15;102557.53;5111424;28;20054;-67
2024/01/29 06:23:17;;;;;;;11.30;4.70;;;;;;;-0.36;96.32;102564.56;5093261;28;20123;-66
2024/01/29 06:25:42;;;;;;;12.00;4.17;;;;;;;-0.37;96.56;102554.94;5086509;28;20049;-67
2024/01/29 06:30:28;;;;;;;10.13;3.42;;;;;;;-0.36;96.43;102557.72;5087056;28;20920;-66
2024/01/29 06:32:54;;;;;;;11.80;4.17;;;;;;;-0.37;96.27;102558.44;5067071;28;20037;-67
2024/01/29 06:35:19;;;;;;;17.88;4.57;;;;;;;-0.38;96.59;102561.78;5066944;28;20174;-67
2024/01/29 06:37:44;;;;;;;16.20;5.33;;;;;;;-0.37;97.33;102568.84;5066909;28;20036;-67
2024/01/29 06:40:11;;;;;;;12.10;4.93;;;;;;;-0.35;98.08;102563.81;5060220;28;20516;-70
2024/01/29 06:42:37;;;;;;;14.93;5.15;;;;;;;-0.32;97.98;102559.88;5067227;28;20040;-65
2024/01/29 06:45:04;;;;;;;14.93;5.13;;;;;;;-0.31;97.88;102569.53;5066192;28;20040;-65
2024/01/29 06:47:30;;;;;;;16.08;4.70;;;;;;;-0.28;98.26;102568.94;5066852;28;20066;-65
2024/01/29 06:49:58;;;;;;;12.40;4.37;;;;;;;-0.28;98.13;102564.66;5069360;28;20426;-65
2024/01/29 06:52:24;;;;;;;14.98;4.53;;;;;;;-0.26;98.19;102565.78;5066728;28;20041;-65
2024/01/29 06:54:49;;;;;;;12.27;4.00;;;;;;;-0.25;98.62;102565.03;5066210;28;20508;-65
2024/01/29 06:57:14;;;;;;;14.80;4.50;;;;;;;-0.22;98.24;102559.25;5066560;28;20033;-65
2024/01/29 06:59:40;;;;;;;13.27;3.95;;;;;;;-0.18;98.44;102564.94;5066955;28;20115;-65
2024/01/29 07:04:36;;;;;;;12.32;4.43;;;;;;;-0.16;98.32;102571.25;5107976;27;20371;-65
2024/01/29 07:07:02;;;;;;;10.73;3.97;;;;;;;-0.13;97.78;102568.06;5086963;28;20028;-65
2024/01/29 07:09:27;;;;;;;15.13;4.15;;;;;;;-0.11;97.97;102574.38;5085175;28;20037;-65
2024/01/29 07:11:53;;;;;;;10.27;4.20;;;;;;;-0.08;97.67;102570.44;5067679;28;20036;-66
2024/01/29 07:14:18;;;;;;;12.77;4.17;;;;;;;-0.03;97.93;102577.06;5067526;28;20112;-65
2024/01/29 07:16:43;;;;;;;12.60;4.10;;;;;;;0.00;97.87;102567.00;5066988;28;20116;-66
2024/01/29 07:19:09;;;;;;;11.20;4.27;;;;;;;0.04;97.53;102557.91;5067127;28;20294;-66
2024/01/29 07:21:34;;;;;;;12.87;4.10;;;;;;;0.12;97.74;102563.91;5075339;28;20048;-65
2024/01/29 07:24:00;;;;;;;13.57;4.93;;;;;;;0.16;97.41;102556.63;5066801;28;20052;-65
2024/01/29 07:26:25;;;;;;;11.13;3.67;;;;;;;0.18;97.36;102549.03;5066969;28;20056;-65
2024/01/29 07:28:50;;;;;;;15.00;4.53;;;;;;;0.27;97.00;102558.75;5067001;28;20271;-64
2024/01/29 07:31:17;;;;;;;13.53;4.67;;;;;;;0.33;96.76;102551.63;5066649;28;20033;-68
2024/01/29 07:33:43;;;;;;;12.90;4.93;;;;;;;0.41;95.90;102553.38;5066990;28;20041;-65
2024/01/29 07:36:08;;;;;;;13.57;4.47;;;;;;;0.49;95.40;102550.72;5066525;28;20504;-68
2024/01/29 07:38:34;;;;;;;14.48;5.28;;;;;;;0.57;95.14;102549.88;5066589;28;20036;-65
2024/01/29 07:40:59;;;;;;;11.53;4.50;;;;;;;0.65;94.26;102554.22;5074680;28;20043;-63
2024/01/29 07:43:24;;;;;;;10.37;3.70;;;;;;;0.72;94.59;102544.66;5073016;28;20480;-64
2024/01/29 07:45:50;;;;;;;10.13;3.80;;;;;;;0.80;93.68;102548.06;5067615;28;20040;-67
2024/01/29 07:48:16;;;;;;;12.40;4.35;;;;;;;0.86;92.72;102541.84;5066440;28;20445;-65
2024/01/29 07:50:41;;;;;;;14.37;3.40;;;;;;;0.95;92.77;102549.72;5069505;28;20131;-66
2024/01/29 07:53:06;;;;;;;15.07;4.45;;;;;;;1.06;92.33;102545.66;5065730;28;20029;-66
2024/01/29 07:55:32;;;;;;;9.33;3.20;;;;;;;1.17;91.67;102542.53;5066140;28;20040;-66
2024/01/29 07:57:57;;;;;;;7.97;3.57;;;;;;;1.27;90.76;102550.56;5065612;28;20040;-66
2024/01/29 08:00:23;;;;;;;14.60;4.50;;;;;;;1.32;90.44;102544.16;5066231;28;20033;-66
2024/01/29 08:02:48;;;;;;;12.57;4.77;;;;;;;1.42;90.45;102548.66;5067286;28;20043;-66
2024/01/29 08:05:13;;;;;;;13.32;4.20;;;;;;;1.54;89.41;102545.66;5065861;28;20080;-67
2024/01/29 08:07:39;;;;;;;9.93;3.57;;;;;;;1.64;88.94;102545.84;5065747;28;20037;-67
2024/01/29 08:10:05;;;;;;;10.93;3.80;;;;;;;1.70;88.83;102541.28;5064962;28;20408;-67
2024/01/29 08:12:30;;;;;;;9.65;3.67;;;;;;;1.76;87.70;102535.81;5065261;28;20041;-77
2024/01/29 08:14:56;;;;;;;9.70;3.20;;;;;;;1.87;87.76;102539.53;5057028;28;20473;-67
2024/01/29 08:17:21;;;;;;;12.30;4.10;;;;;;;1.98;86.95;102550.28;5052460;28;20471;-67
2024/01/29 08:19:46;;;;;;;9.70;4.20;;;;;;;2.14;86.87;102545.91;5053212;28;20041;-67
2024/01/29 08:22:12;;;;;;;8.60;3.63;;;;;;;2.24;85.82;102544.22;5059575;28;20060;-67
2024/01/29 08:24:38;;;;;;;13.97;3.80;;;;;;;2.36;85.24;102538.59;5052455;28;20545;-67
2024/01/29 08:29:20;;;;;;;13.40;4.00;;;;;;;2.60;84.26;102532.31;5107783;27;20416;-68
2024/01/29 08:31:45;;;;;;;8.20;3.35;;;;;;;2.70;82.71;102529.88;5098305;28;20040;-67
2024/01/29 08:34:10;;;;;;;11.73;3.77;;;;;;;2.83;81.79;102530.31;5086728;28;20051;-69
2024/01/29 08:36:36;;;;;;;9.00;3.23;;;;;;;2.98;81.25;102518.78;5087146;28;20040;-68
2024/01/29 08:39:02;;;;;;;14.15;3.58;;;;;;;3.11;79.19;102515.69;5086987;28;20044;-68
2024/01/29 08:41:27;;;;;;;10.80;2.50;;;;;;;3.27;78.83;102524.25;5087570;28;20503;-67
2024/01/29 08:43:53;;;;;;;8.43;3.33;;;;;;;3.39;77.41;102514.09;5087478;28;20120;-67
2024/01/29 08:46:18;;;;;;;9.23;3.13;;;;;;;3.57;75.72;102514.97;5085973;28;20036;-67
2024/01/29 08:48:44;;;;;;;10.93;3.43;;;;;;;3.68;74.17;102512.63;5085115;28;20131;-67
2024/01/29 08:53:35;;;;;;;11.32;3.28;;;;;;;4.00;72.95;102517.38;5087475;28;20418;-67
2024/01/29 08:56:00;;;;;;;8.68;3.30;;;;;;;4.12;71.88;102513.31;5087177;28;20393;-67
2024/01/29 08:58:26;;;;;;;7.73;2.97;;;;;;;4.24;71.56;102517.09;5087515;28;20040;-67
2024/01/29 09:00:54;;;;;;;9.83;3.50;;;;;;;4.33;70.76;102520.56;5090285;28;20503;-67
2024/01/29 09:03:20;;;;;;;7.32;2.67;;;;;;;4.44;70.72;102512.00;5087472;28;20496;-66
2024/01/29 09:05:47;;;;;;;10.18;3.30;;;;;;;4.58;69.91;102513.31;5085962;28;20484;-66
2024/01/29 09:08:13;;;;;;;12.25;3.13;;;;;;;4.70;69.57;102512.72;5087338;28;20028;-67
2024/01/29 09:10:38;;;;;;;12.50;3.47;;;;;;;4.86;69.80;102530.78;5086980;28;20450;-69
2024/01/29 09:13:03;;;;;;;12.53;3.33;;;;;;;4.92;68.19;102525.19;5078942;28;20119;-67
2024/01/29 09:15:29;;;;;;;9.13;2.83;;;;;;;4.97;67.45;102521.28;5087174;28;20040;-67
2024/01/29 09:17:54;;;;;;;12.67;4.17;;;;;;;5.06;67.53;102520.41;5086959;28;20424;-66
2024/01/29 09:20:19;;;;;;;11.73;3.20;;;;;;;5.12;66.87;102514.81;5092174;28;20115;-67
2024/01/29 09:22:45;;;;;;;10.93;3.43;;;;;;;5.22;66.82;102512.25;5089505;28;20044;-66
2024/01/29 09:27:38;;;;;;;8.27;3.15;;;;;;;5.34;65.18;102515.03;5004377;28;20365;-67
2024/01/29 09:30:04;;;;;;;11.20;3.25;;;;;;;5.42;65.04;102517.59;4978153;28;20510;-67
2024/01/29 09:32:29;;;;;;;15.63;3.27;;;;;;;5.55;65.29;102514.34;4965792;28;20039;-67
2024/01/29 09:34:58;;;;;;;8.27;2.90;;;;;;;5.64;64.23;102521.31;4965093;28;20126;-67
2024/01/29 09:37:23;;;;;;;10.83;3.10;;;;;;;5.69;64.22;102521.72;4965395;28;20282;-68
2024/01/29 09:42:20;;;;;;;10.00;2.63;;;;;;;5.78;62.16;102522.53;5087603;27;20437;-67
2024/01/29 09:44:47;;;;;;;10.02;3.35;;;;;;;5.91;62.58;102525.50;5069822;28;20464;-66
2024/01/29 09:47:14;;;;;;;10.68;2.83;;;;;;;6.05;63.19;102519.75;5070758;28;20074;-67
2024/01/29 09:49:40;;;;;;;9.57;2.85;;;;;;;6.19;62.52;102518.31;5081694;28;20082;-67
2024/01/29 09:52:14;;;;;;;8.37;2.63;;;;;;;6.32;61.54;102522.91;5068516;28;20040;-67
2024/01/29 09:54:40;;;;;;;10.43;3.85;;;;;;;6.43;61.03;102533.53;5067137;28;20033;-69
2024/01/29 09:57:09;;;;;;;10.10;3.08;;;;;;;6.55;60.74;102527.50;5067164;28;20439;-66
2024/01/29 09:59:35;;;;;;;11.25;3.67;;;;;;;6.66;60.73;102526.72;5074750;28;20470;-65
2024/01/29 10:02:02;;;;;;;9.77;3.00;;;;;;;6.81;61.09;102528.91;5070232;28;20033;-67
2024/01/29 10:04:27;;;;;;;12.65;3.28;;;;;;;6.87;59.87;102532.06;5067378;28;20258;-66
2024/01/29 10:06:53;;;;;;;10.07;3.23;;;;;;;6.98;60.31;102534.66;5066507;28;20075;-66
2024/01/29 10:09:18;;;;;;;7.93;2.63;;;;;;;7.04;58.45;102525.59;5067215;28;20036;-66
2024/01/29 10:11:43;;;;;;;7.03;2.40;;;;;;;7.12;57.81;102527.13;5066965;28;20127;-66
2024/01/29 10:14:09;;;;;;;8.30;2.90;;;;;;;7.17;57.88;102528.44;5067016;28;20287;-66
2024/01/29 10:16:34;;;;;;;7.97;3.10;;;;;;;7.27;58.11;102525.78;5066268;28;20033;-65
2024/01/29 10:19:01;;;;;;;8.03;2.93;;;;;;;7.35;57.03;102523.78;5065347;28;20021;-66
2024/01/29 10:21:27;;;;;;;6.63;2.30;;;;;;;7.42;56.84;102520.84;5075012;28;20475;-66
2024/01/29 10:23:59;;;;;;;8.40;2.92;;;;;;;7.51;56.69;102520.66;5066226;28;20048;-66
2024/01/29 10:26:28;;;;;;;9.20;2.50;;;;;;;7.55;55.02;102520.16;5066353;28;20037;-66
2024/01/29 10:29:04;;;;;;;10.20;2.07;;;;;;;7.60;55.00;102526.66;5066389;28;20064;-66
2024/01/29 10:31:31;;;;;;;11.10;2.50;;;;;;;7.71;56.01;102528.47;5066956;28;20033;-67
2024/01/29 10:33:58;;;;;;;9.45;2.58;;;;;;;7.77;55.49;102523.69;5065943;28;20090;-66
2024/01/29 10:36:24;;;;;;;8.57;2.45;;;;;;;7.86;55.26;102526.13;5064828;28;20052;-66
2024/01/29 10:38:50;;;;;;;8.70;2.20;;;;;;;8.03;55.71;102529.34;5066095;28;20025;-66
2024/01/29 10:41:17;;;;;;;8.80;2.63;;;;;;;8.08;54.16;102520.09;5066037;28;20033;-66
2024/01/29 10:43:49;;;;;;;8.35;2.47;;;;;;;8.22;55.39;102521.16;5066220;28;20041;-67
2024/01/29 10:46:20;;;;;;;7.05;2.35;;;;;;;8.31;54.63;102514.03;5065999;28;20127;-67
2024/01/29 10:48:46;;;;;;;9.25;2.30;;;;;;;8.39;53.71;102517.22;5065931;28;20040;-67
2024/01/29 10:51:15;;;;;;;8.27;2.17;;;;;;;8.48;53.76;102513.63;5069104;28;20114;-66
2024/01/29 10:53:42;;;;;;;7.93;2.07;;;;;;;8.57;53.65;102505.50;5051981;28;20099;-65
2024/01/29 10:56:08;;;;;;;7.32;2.35;;;;;;;8.63;52.15;102504.25;5052415;28;20136;-67
2024/01/29 10:58:34;;;;;;;8.00;2.25;;;;;;;8.78;52.79;102504.47;5052722;28;20043;-67
2024/01/29 11:01:00;;;;;;;7.67;2.30;;;;;;;8.85;51.85;102501.53;5055731;28;20037;-65
2024/01/29 11:03:26;;;;;;;7.88;2.03;;;;;;;9.01;51.63;102498.34;5053440;28;20428;-67
2024/01/29 11:06:23;;;;;;;6.88;1.63;;;;;;;9.20;52.06;102497.97;5052786;28;20033;-68
2024/01/29 11:08:55;;;;;;;5.40;2.05;;;;;;;9.38;52.55;102497.59;5060466;28;20497;-67
2024/01/29 11:11:23;;;;;;;10.52;1.85;;;;;;;9.48;51.23;102499.19;5052563;28;20036;-65
2024/01/29 11:13:49;;;;;;;5.70;1.60;;;;;;;9.62;51.45;102490.56;5052891;28;20053;-66
2024/01/29 11:16:14;;;;;;;10.77;2.50;;;;;;;9.70;50.40;102488.50;5052091;28;20418;-66
2024/01/29 11:18:40;;;;;;;6.47;2.10;;;;;;;9.81;49.98;102482.25;5052366;28;20108;-66
2024/01/29 11:21:10;;;;;;;8.45;2.03;;;;;;;9.93;50.12;102481.41;5060398;28;20029;-67
2024/01/29 11:23:59;;;;;;;8.13;2.60;;;;;;;10.14;50.39;102473.16;5052169;28;20051;-66
2024/01/29 11:26:28;;;;;;;7.43;2.33;;;;;;;10.27;50.02;102473.22;5040722;28;20106;-66
2024/01/29 11:29:00;;;;;;;6.63;2.03;;;;;;;10.38;46.67;102477.53;5051951;28;20390;-67
2024/01/29 11:31:39;;;;;;;6.22;1.80;;;;;;;10.55;47.22;102479.63;5052270;28;20485;-67
2024/01/29 11:34:05;;;;;;;6.15;1.55;;;;;;;10.64;46.65;102477.59;5060688;28;20045;-66
2024/01/29 11:39:05;;;;;;;7.03;1.80;;;;;;;10.89;44.61;102474.91;5107709;27;20727;-67
2024/01/29 11:41:34;;;;;;;6.38;1.85;;;;;;;11.04;44.89;102467.97;5092447;28;20477;-68
2024/01/29 11:44:00;;;;;;;5.28;1.80;;;;;;;11.06;43.14;102461.03;5087404;28;20525;-66
2024/01/29 11:46:29;;;;;;;4.90;1.52;;;;;;;11.19;44.56;102466.34;5087275;28;20111;-66
2024/01/29 11:49:03;;;;;;;8.00;1.90;;;;;;;11.25;43.36;102471.09;5087494;28;20044;-66
2024/01/29 11:51:29;;;;;;;5.93;1.60;;;;;;;11.39;43.77;102462.34;5091041;28;20059;-66
2024/01/29 11:53:55;;;;;;;5.57;1.57;;;;;;;11.49;42.71;102458.56;5095676;28;20043;-66
2024/01/29 11:56:20;;;;;;;6.10;1.77;;;;;;;11.53;42.30;102455.31;5087635;28;20134;-66